Time,TemperatureF,DewpointF,PressureIn,WindDirection,WindDirectionDegrees,WindSpeedMPH,WindSpeedGustMPH,Humidity,HourlyPrecipIn,Conditions,Clouds,dailyrainin,SoftwareType,DateUTC
2013-04-08 00:02:00,29.1,25.7,30.06,North,9,0.0,4.0,87,0.00,,,0.00,meteohub,2013-04-07 22:02:00,
2013-04-08 00:32:00,28.0,25.2,30.05,North,9,0.0,1.0,89,0.00,,,0.00,meteohub,2013-04-07 22:32:00,
2013-04-08 01:02:00,27.3,24.4,30.05,North,9,0.0,3.0,89,0.00,,,0.00,meteohub,2013-04-07 23:02:00,
2013-04-08 01:32:00,27.1,24.8,30.04,North,9,3.0,3.0,91,0.00,,,0.00,meteohub,2013-04-07 23:32:00,
2013-04-08 02:02:00,26.8,24.4,30.04,North,10,1.0,4.0,91,0.00,,,0.00,meteohub,2013-04-08 00:02:00,
2013-04-08 02:32:00,25.9,23.5,30.03,North,10,2.0,2.0,91,0.00,,,0.00,meteohub,2013-04-08 00:32:00,
2013-04-08 03:02:00,25.3,23.0,30.02,North,10,0.0,3.0,91,0.00,,,0.00,meteohub,2013-04-08 01:02:00,
2013-04-08 03:32:00,25.2,23.2,30.02,North,9,1.0,3.0,92,0.00,,,0.00,meteohub,2013-04-08 01:32:00,
2013-04-08 04:02:00,24.6,22.8,30.01,North,9,1.0,2.0,93,0.00,,,0.00,meteohub,2013-04-08 02:02:00,
2013-04-08 04:32:00,23.7,21.9,30.00,North,9,0.0,4.0,93,0.00,,,0.00,meteohub,2013-04-08 02:32:00,
2013-04-08 05:02:00,23.5,21.7,29.99,North,9,1.0,4.0,93,0.00,,,0.00,meteohub,2013-04-08 03:02:00,
2013-04-08 05:32:00,23.2,21.7,29.98,North,9,0.0,3.0,94,0.00,,,0.00,meteohub,2013-04-08 03:32:00,
2013-04-08 06:02:00,22.6,21.2,29.96,North,9,0.0,2.0,94,0.00,,,0.00,meteohub,2013-04-08 04:02:00,
2013-04-08 06:32:00,22.5,21.0,29.96,North,9,0.0,2.0,94,0.00,,,0.00,meteohub,2013-04-08 04:32:00,
2013-04-08 07:02:00,22.6,21.2,29.95,North,9,2.0,3.0,94,0.00,,,0.00,meteohub,2013-04-08 05:02:00,
2013-04-08 07:32:00,23.5,22.1,29.95,North,9,1.0,4.0,94,0.00,,,0.00,meteohub,2013-04-08 05:32:00,
2013-04-08 08:02:00,25.9,24.1,29.94,North,9,0.0,4.0,93,0.00,,,0.00,meteohub,2013-04-08 06:02:00,
2013-04-08 08:32:00,28.6,25.7,29.94,North,9,0.0,2.0,89,0.00,,,0.00,meteohub,2013-04-08 06:32:00,
2013-04-08 09:02:00,31.3,27.5,29.93,NNE,13,0.0,3.0,86,0.00,,,0.00,meteohub,2013-04-08 07:02:00,
2013-04-08 09:32:00,34.7,30.0,29.92,NE,42,1.0,3.0,83,0.00,,,0.00,meteohub,2013-04-08 07:32:00,
2013-04-08 10:02:00,38.3,32.4,29.91,SSW,211,3.0,4.0,79,0.00,,,0.00,meteohub,2013-04-08 08:02:00,
2013-04-08 10:32:00,41.9,29.8,29.90,NE,44,8.0,8.0,62,0.00,,,0.00,meteohub,2013-04-08 08:32:00,
2013-04-08 11:02:00,43.5,28.4,29.89,SE,126,4.0,9.0,55,0.00,,,0.00,meteohub,2013-04-08 09:02:00,
2013-04-08 11:32:00,44.6,28.0,29.88,SSE,161,1.0,11.0,52,0.00,,,0.00,meteohub,2013-04-08 09:32:00,
2013-04-08 12:02:00,45.7,28.0,29.87,East,97,5.0,8.0,50,0.00,,,0.00,meteohub,2013-04-08 10:02:00,
2013-04-08 12:32:00,45.3,27.9,29.85,NE,51,1.0,11.0,50,0.00,,,0.00,meteohub,2013-04-08 10:32:00,
2013-04-08 13:02:00,46.9,28.2,29.84,ESE,118,2.0,11.0,48,0.00,,,0.00,meteohub,2013-04-08 11:02:00,
2013-04-08 13:32:00,47.8,27.0,29.82,ENE,70,1.0,9.0,44,0.00,,,0.00,meteohub,2013-04-08 11:32:00,
2013-04-08 14:02:00,48.6,27.7,29.81,NW,316,4.0,10.0,44,0.00,,,0.00,meteohub,2013-04-08 12:02:00,
2013-04-08 14:32:00,49.3,27.7,29.79,NE,55,4.0,10.0,43,0.00,,,0.00,meteohub,2013-04-08 12:32:00,
2013-04-08 15:02:00,50.0,27.9,29.78,SE,132,4.0,13.0,42,0.00,,,0.00,meteohub,2013-04-08 13:02:00,
2013-04-08 15:32:00,49.8,27.7,29.77,NE,41,1.0,9.0,42,0.00,,,0.00,meteohub,2013-04-08 13:32:00,
2013-04-08 16:02:00,49.8,27.1,29.76,ENE,71,3.0,8.0,41,0.00,,,0.00,meteohub,2013-04-08 14:02:00,
2013-04-08 16:32:00,50.4,27.0,29.75,NW,311,0.0,10.0,40,0.00,,,0.00,meteohub,2013-04-08 14:32:00,
2013-04-08 17:02:00,50.2,27.3,29.74,ESE,113,2.0,12.0,41,0.00,,,0.00,meteohub,2013-04-08 15:02:00,
2013-04-08 17:32:00,50.0,26.6,29.73,East,86,2.0,7.0,40,0.00,,,0.00,meteohub,2013-04-08 15:32:00,
2013-04-08 18:02:00,50.7,27.3,29.72,East,100,1.0,10.0,40,0.00,,,0.00,meteohub,2013-04-08 16:02:00,
2013-04-08 18:32:00,49.8,27.7,29.72,SSE,150,2.0,5.0,42,0.00,,,0.00,meteohub,2013-04-08 16:32:00,
2013-04-08 19:02:00,48.7,26.6,29.73,NE,49,1.0,6.0,42,0.00,,,0.00,meteohub,2013-04-08 17:02:00,
2013-04-08 19:32:00,47.8,27.0,29.73,SSW,209,0.0,3.0,44,0.00,,,0.00,meteohub,2013-04-08 17:32:00,
2013-04-08 20:02:00,45.9,28.2,29.73,SSW,209,0.0,1.0,50,0.00,,,0.00,meteohub,2013-04-08 18:02:00,
2013-04-08 20:32:00,44.4,29.3,29.73,SW,221,0.0,3.0,55,0.00,,,0.00,meteohub,2013-04-08 18:32:00,
2013-04-08 21:02:00,43.3,28.8,29.73,SW,221,1.0,2.0,56,0.00,,,0.00,meteohub,2013-04-08 19:02:00,
2013-04-08 21:32:00,43.0,29.3,29.74,SW,221,0.0,3.0,58,0.00,,,0.00,meteohub,2013-04-08 19:32:00,
2013-04-08 22:02:00,41.2,30.4,29.73,SW,221,0.0,1.0,65,0.00,,,0.00,meteohub,2013-04-08 20:02:00,
2013-04-08 22:32:00,40.5,30.7,29.73,SW,221,0.0,2.0,68,0.00,,,0.00,meteohub,2013-04-08 20:32:00,
2013-04-08 23:02:00,39.6,30.9,29.73,SW,221,0.0,0.0,71,0.00,,,0.00,meteohub,2013-04-08 21:02:00,
2013-04-08 23:32:00,39.0,30.0,29.73,SW,221,0.0,1.0,70,0.00,,,0.00,meteohub,2013-04-08 21:32:00,